Terminal Aerodrome Forecast
Issued by NWS

Home | Current Version | Previous Version | Text Only | Print | Product List | Glossary On
Versions: 1 2 3 4 5 6 7 8 9 10 11 12 13 14 15
000
FTUS44 KSJT 061100
TAFSOA
TAF
KSOA 061139Z 0612/0712 17012G20KT P6SM BKN015
     FM061600 18012G20KT P6SM BKN020
     FM062000 17012G20KT P6SM SCT025 BKN050=

USA.gov is the U.S. government's official web portal to all federal, state and local government web resources and services.